Weather at Roths field

Public forecast

Using degrees Celsius for public forecast. Weather courtesy of forecast.io.

Closest aviation weather report (METAR) to Roths field

Closest report is Waterloo Airport, 35.6 nm (65.9 km) SSE. Retrieved 2020/09/29 16:00 UTC (51 minutes ago):

CYKF 291600Z AUTO 25009G15KT 9SM SCT025 BKN033 14/10 A2984 RMK SLP106 DENSITY ALT 1300FT

Closest aviation forecast (TAF) to Roths field

Closest forecast is Waterloo Airport, 35.6 nm (65.9 km) SSE. Retrieved 2020/09/29 14:39 UTC (2 hours ago):

TAF CYKF 291338Z 2914/3002 24012KT P6SM BKN015 TEMPO 2914/2917 FEW015 BKN025 FM291700 24012KT P6SM BKN030 BECMG 2922/2924 22008KT RMK FCST BASED ON AUTO OBS NXT FCST BY 292000Z